Time;durP1;ratioP1;P1;durP2;ratioP2;P2;SDS_P1;SDS_P2;PMS_P1;PMS_P2;Temp;Humidity;BMP_temperature;BMP_pressure;BME280_temperature;BME280_humidity;BME280_pressure;Samples;Min_cycle;Max_cycle;Signal;HPM_P1;HPM_P2
2022/05/30 00:01:18;;;;;;;8.82;5.30;;;;;;;3.04;100.00;94945.31;5022951;28;20053;-72
2022/05/30 00:03:45;;;;;;;8.77;4.65;;;;;;;3.07;100.00;94941.47;5030232;28;20041;-72
2022/05/30 00:06:13;;;;;;;8.45;4.88;;;;;;;3.06;100.00;94942.47;5030278;28;20495;-72
2022/05/30 00:08:39;;;;;;;8.07;4.63;;;;;;;3.04;100.00;94937.53;5027903;28;20057;-72
2022/05/30 00:11:07;;;;;;;9.32;4.82;;;;;;;3.00;100.00;94935.63;5029878;28;20037;-72
2022/05/30 00:13:33;;;;;;;9.73;4.78;;;;;;;2.88;100.00;94933.88;5029475;28;20479;-72
2022/05/30 00:16:06;;;;;;;6.88;4.32;;;;;;;2.93;100.00;94936.59;5029740;28;20060;-73
2022/05/30 00:18:32;;;;;;;6.80;4.35;;;;;;;2.91;100.00;94933.41;5028366;28;20038;-73
2022/05/30 00:20:58;;;;;;;10.35;4.80;;;;;;;3.02;100.00;94931.00;5028023;28;20108;-73
2022/05/30 00:23:24;;;;;;;8.77;4.97;;;;;;;2.98;100.00;94935.09;5026541;28;20126;-73
2022/05/30 00:25:50;;;;;;;7.95;4.78;;;;;;;2.89;100.00;94935.47;5028889;28;20418;-73
2022/05/30 00:28:18;;;;;;;9.82;5.30;;;;;;;2.88;100.00;94933.88;5022433;28;20045;-73
2022/05/30 00:30:45;;;;;;;10.55;4.75;;;;;;;2.99;100.00;94939.25;5027906;28;20075;-73
2022/05/30 00:33:11;;;;;;;7.95;4.63;;;;;;;2.93;100.00;94941.78;5029501;28;20045;-73
2022/05/30 00:35:38;;;;;;;6.25;3.80;;;;;;;2.80;100.00;94929.06;5028267;28;20095;-73
2022/05/30 00:38:03;;;;;;;8.25;4.97;;;;;;;2.75;100.00;94931.59;5029067;28;20046;-74
2022/05/30 00:40:31;;;;;;;7.60;4.88;;;;;;;2.78;100.00;94933.72;5029243;28;20045;-74
2022/05/30 00:43:15;;;;;;;7.43;4.13;;;;;;;2.71;100.00;94922.69;5025159;28;20042;-73
2022/05/30 00:45:41;;;;;;;;;;;;;;;2.65;100.00;94928.81;5028252;28;20037;-73
2022/05/30 00:48:07;;;;;;;6.95;4.15;;;;;;;2.60;100.00;94926.91;5029350;28;19921;-73
2022/05/30 00:50:33;;;;;;;9.23;4.35;;;;;;;2.68;100.00;94928.34;5022452;28;20087;-73
2022/05/30 00:52:59;;;;;;;8.45;4.22;;;;;;;2.58;100.00;94924.53;5027510;28;20041;-73
2022/05/30 00:55:24;;;;;;;7.05;4.20;;;;;;;2.50;100.00;94927.53;5029043;28;20048;-72
2022/05/30 00:57:50;;;;;;;7.28;4.43;;;;;;;2.48;100.00;94929.56;5020125;28;20411;-73
2022/05/30 01:00:20;;;;;;;9.13;4.55;;;;;;;2.49;100.00;94923.34;5027427;28;20037;-73
2022/05/30 01:06:30;;;;;;;6.63;4.10;;;;;;;2.48;100.00;94908.78;5026844;28;20116;-73
2022/05/30 01:08:17;;;;;;;7.50;4.13;;;;;;;2.46;100.00;94904.84;5015662;28;20443;-73
2022/05/30 01:10:42;;;;;;;11.57;4.70;;;;;;;2.43;100.00;94906.09;5027257;28;20037;-73
2022/05/30 01:13:11;;;;;;;7.85;4.53;;;;;;;2.40;100.00;94901.38;5029069;28;20570;-73
2022/05/30 01:15:36;;;;;;;7.57;4.65;;;;;;;2.36;100.00;94895.06;5029024;28;20049;-73
2022/05/30 01:18:21;;;;;;;8.95;4.50;;;;;;;2.43;100.00;94896.50;5027592;28;20038;-73
2022/05/30 01:21:01;;;;;;;8.07;4.35;;;;;;;2.38;100.00;94893.78;5027814;28;20052;-73
2022/05/30 01:24:02;;;;;;;5.78;3.78;;;;;;;2.29;100.00;94899.63;5028561;28;20038;-73
2022/05/30 01:27:03;;;;;;;6.30;3.88;;;;;;;2.20;100.00;94907.75;5028708;28;20197;-73
2022/05/30 01:29:44;;;;;;;7.38;3.92;;;;;;;2.08;100.00;94899.22;5025343;28;20041;-73
2022/05/30 01:32:09;;;;;;;7.93;3.90;;;;;;;2.02;100.00;94889.75;5021748;28;20042;-73
2022/05/30 01:34:35;;;;;;;9.80;4.25;;;;;;;2.12;100.00;94894.38;5028891;28;20546;-73
2022/05/30 01:37:00;;;;;;;7.75;4.40;;;;;;;2.19;100.00;94895.78;5028128;28;20034;-73
2022/05/30 01:39:26;;;;;;;7.15;3.95;;;;;;;2.08;100.00;94894.84;5027650;28;20049;-73
2022/05/30 01:41:51;;;;;;;6.38;3.72;;;;;;;2.07;100.00;94885.47;5023602;28;20091;-73
2022/05/30 01:44:17;;;;;;;6.43;3.90;;;;;;;2.08;100.00;94883.63;5025610;28;20049;-73
2022/05/30 01:46:43;;;;;;;6.38;4.18;;;;;;;2.16;100.00;94870.31;5024806;28;20053;-73
2022/05/30 01:49:10;;;;;;;7.72;4.40;;;;;;;2.02;100.00;94880.16;5025929;28;20039;-72
2022/05/30 01:51:35;;;;;;;5.97;3.85;;;;;;;1.93;100.00;94875.59;5022075;28;20065;-72
2022/05/30 01:54:01;;;;;;;6.57;4.05;;;;;;;1.92;100.00;94879.19;5026117;28;20570;-72
2022/05/30 01:56:27;;;;;;;7.53;4.07;;;;;;;1.93;100.00;94875.59;5024233;28;20548;-72
2022/05/30 01:58:52;;;;;;;8.05;4.22;;;;;;;1.93;100.00;94870.41;5025649;28;20041;-72
2022/05/30 02:01:28;;;;;;;7.72;4.15;;;;;;;2.00;100.00;94865.88;5025902;28;20046;-72
2022/05/30 02:03:55;;;;;;;8.75;4.10;;;;;;;2.02;100.00;94858.63;5025408;28;20046;-72
2022/05/30 02:06:23;;;;;;;5.88;3.92;;;;;;;2.00;100.00;94852.88;5026670;28;20055;-73
2022/05/30 02:08:48;;;;;;;7.13;4.20;;;;;;;1.84;100.00;94860.38;5027610;28;20041;-73
2022/05/30 02:11:16;;;;;;;6.97;4.30;;;;;;;1.80;100.00;94853.28;5024998;28;20132;-73
2022/05/30 02:13:42;;;;;;;6.22;3.85;;;;;;;1.75;100.00;94853.16;5024217;28;20037;-73
2022/05/30 02:18:59;;;;;;;6.80;3.92;;;;;;;1.78;100.00;94856.09;5024336;28;20042;-73
2022/05/30 02:21:24;;;;;;;9.63;4.38;;;;;;;1.81;100.00;94867.81;5025318;28;20450;-74
2022/05/30 02:23:50;;;;;;;8.02;4.28;;;;;;;1.81;100.00;94860.84;5028353;28;20091;-73
2022/05/30 02:26:16;;;;;;;6.90;4.28;;;;;;;1.79;100.00;94865.44;5028016;28;20048;-72
2022/05/30 02:28:41;;;;;;;8.32;4.43;;;;;;;1.77;100.00;94867.50;5025561;28;20049;-72
2022/05/30 02:31:07;;;;;;;7.90;3.90;;;;;;;1.94;100.00;94871.94;5027007;28;20041;-72
2022/05/30 02:39:01;;;;;;;6.80;4.23;;;;;;;1.89;100.00;94870.06;5026563;28;20042;-72
2022/05/30 02:41:27;;;;;;;8.00;4.60;;;;;;;1.89;100.00;94876.03;5026141;28;20498;-72
2022/05/30 02:43:52;;;;;;;6.78;4.38;;;;;;;1.88;100.00;94871.06;5030280;28;20045;-72
2022/05/30 02:46:18;;;;;;;7.82;4.47;;;;;;;1.92;100.00;94867.00;5032168;28;20144;-72
2022/05/30 02:48:44;;;;;;;7.90;4.18;;;;;;;1.93;100.00;94880.78;5030212;28;20052;-72
2022/05/30 02:51:09;;;;;;;9.23;4.72;;;;;;;1.90;100.00;94882.78;5028725;28;20041;-72
2022/05/30 02:53:36;;;;;;;7.50;4.35;;;;;;;1.93;100.00;94880.78;5030430;28;20065;-72
2022/05/30 02:56:02;;;;;;;10.65;4.75;;;;;;;1.92;100.00;94876.59;5018046;28;20466;-73
2022/05/30 02:58:27;;;;;;;7.25;4.10;;;;;;;1.94;100.00;94874.53;5044512;28;20061;-72
2022/05/30 03:00:53;;;;;;;7.57;4.30;;;;;;;1.89;100.00;94873.44;5028636;28;20408;-72
2022/05/30 03:03:18;;;;;;;9.38;4.82;;;;;;;2.01;100.00;94872.59;5030622;28;20411;-72
2022/05/30 03:05:45;;;;;;;7.82;4.60;;;;;;;2.04;100.00;94861.75;5026131;28;20068;-72
2022/05/30 03:08:11;;;;;;;7.15;4.72;;;;;;;2.04;100.00;94861.75;5031108;28;20049;-72
2022/05/30 03:10:37;;;;;;;11.90;5.32;;;;;;;2.04;100.00;94856.56;5028832;28;20045;-72
2022/05/30 03:13:05;;;;;;;8.90;5.35;;;;;;;2.04;100.00;94851.38;5029518;28;20060;-72
2022/05/30 03:15:30;;;;;;;6.95;5.00;;;;;;;2.06;100.00;94849.34;5030012;28;20056;-72
2022/05/30 03:17:56;;;;;;;8.73;5.43;;;;;;;2.14;100.00;94850.78;5028313;28;20049;-73
2022/05/30 03:20:21;;;;;;;8.63;4.72;;;;;;;2.10;100.00;94855.66;5027460;28;20474;-73
2022/05/30 03:22:48;;;;;;;9.70;4.82;;;;;;;2.03;100.00;94865.41;5030248;28;20119;-73
2022/05/30 03:25:15;;;;;;;8.63;5.10;;;;;;;2.10;100.00;94855.66;5038461;28;20045;-73
2022/05/30 03:27:41;;;;;;;6.95;4.50;;;;;;;2.05;100.00;94869.34;5030853;28;20041;-73
2022/05/30 03:30:07;;;;;;;6.78;4.38;;;;;;;2.05;100.00;94858.97;5020748;28;20187;-73
2022/05/30 03:32:33;;;;;;;9.82;4.70;;;;;;;2.06;100.00;94864.94;5023943;28;20499;-72
2022/05/30 03:34:59;;;;;;;7.25;4.25;;;;;;;2.04;100.00;94882.53;5030912;28;20131;-73
2022/05/30 03:37:26;;;;;;;13.75;4.47;;;;;;;2.08;100.00;94873.25;5031483;28;20045;-73
2022/05/30 03:39:51;;;;;;;7.82;4.63;;;;;;;2.02;100.00;94879.38;5029076;28;20117;-73
2022/05/30 03:42:17;;;;;;;7.95;4.45;;;;;;;1.98;100.00;94875.66;5030075;28;20050;-72
2022/05/30 03:44:43;;;;;;;8.70;4.70;;;;;;;1.96;100.00;94872.53;5031341;28;20116;-72
2022/05/30 03:47:09;;;;;;;7.40;4.45;;;;;;;1.98;100.00;94880.84;5024762;28;20502;-72
2022/05/30 03:49:35;;;;;;;8.05;4.63;;;;;;;2.01;100.00;94872.59;5028531;28;20045;-72
2022/05/30 03:52:01;;;;;;;8.38;4.30;;;;;;;2.11;100.00;94883.19;5046666;28;20060;-72
2022/05/30 03:54:27;;;;;;;7.47;3.97;;;;;;;2.18;100.00;94873.44;5050111;28;20041;-72
2022/05/30 03:56:53;;;;;;;8.88;4.75;;;;;;;2.16;100.00;94880.69;5050728;28;20122;-71
2022/05/30 03:59:18;;;;;;;9.60;5.13;;;;;;;2.11;100.00;94888.38;5039000;28;20041;-71
2022/05/30 04:01:44;;;;;;;9.95;4.65;;;;;;;2.15;100.00;94884.28;5035607;28;20049;-71
2022/05/30 04:04:12;;;;;;;7.25;4.65;;;;;;;2.17;100.00;94895.25;5044844;28;20049;-72
2022/05/30 04:06:39;;;;;;;7.82;4.72;;;;;;;2.24;100.00;94880.31;5046126;28;20033;-72
2022/05/30 04:09:05;;;;;;;7.40;4.85;;;;;;;2.38;100.00;94880.03;5046154;28;20104;-71
2022/05/30 04:11:30;;;;;;;8.80;4.93;;;;;;;2.41;100.00;94876.97;5043161;28;20033;-71
2022/05/30 04:13:56;;;;;;;12.00;4.97;;;;;;;2.47;100.00;94886.44;5042910;28;20048;-71
2022/05/30 04:16:23;;;;;;;7.30;4.53;;;;;;;2.50;100.00;94880.78;5034674;28;20379;-72
2022/05/30 04:18:48;;;;;;;8.30;5.22;;;;;;;2.52;100.00;94878.72;5025770;28;20049;-71
2022/05/30 04:21:14;;;;;;;10.35;5.15;;;;;;;2.62;100.00;94877.34;5027261;28;20533;-71
2022/05/30 04:23:42;;;;;;;8.20;5.13;;;;;;;2.57;100.00;94876.22;5029099;28;20038;-71
2022/05/30 04:26:10;;;;;;;10.57;4.53;;;;;;;2.57;100.00;94881.41;5026773;28;20112;-71
2022/05/30 04:28:35;;;;;;;10.35;5.20;;;;;;;2.69;100.00;94883.16;5027318;28;20050;-71
2022/05/30 04:31:11;;;;;;;8.18;5.10;;;;;;;2.80;100.00;94884.88;5027351;28;20052;-71
2022/05/30 04:33:38;;;;;;;9.20;5.60;;;;;;;2.98;100.00;94896.09;5029350;28;20040;-72
2022/05/30 04:36:06;;;;;;;9.63;5.65;;;;;;;3.09;100.00;94900.44;5025363;28;20449;-71
2022/05/30 04:38:32;;;;;;;10.15;5.28;;;;;;;3.06;100.00;94893.09;5026688;28;20061;-72
2022/05/30 04:40:58;;;;;;;8.23;5.60;;;;;;;3.08;100.00;94896.25;5024249;28;20106;-72
2022/05/30 04:43:23;;;;;;;11.27;5.53;;;;;;;3.21;100.00;94901.13;5029357;28;20037;-72
2022/05/30 04:46:11;;;;;;;8.07;5.18;;;;;;;3.31;100.00;94894.53;5026348;28;20053;-72
2022/05/30 04:48:37;;;;;;;9.73;5.57;;;;;;;3.38;100.00;94895.16;5026235;28;20054;-71
2022/05/30 04:51:03;;;;;;;10.38;5.28;;;;;;;3.47;100.00;94894.47;5026714;28;20060;-72
2022/05/30 04:53:29;;;;;;;10.02;5.57;;;;;;;3.54;100.00;94896.91;5033659;28;20045;-72
2022/05/30 04:55:55;;;;;;;8.45;5.63;;;;;;;3.59;100.00;94891.78;5027770;28;20111;-72
2022/05/30 04:58:21;;;;;;;9.82;5.85;;;;;;;3.64;100.00;94898.88;5029321;28;20404;-72
2022/05/30 05:00:46;;;;;;;8.05;5.15;;;;;;;3.71;100.00;94903.91;5015230;28;20083;-72
2022/05/30 05:03:12;;;;;;;9.35;5.70;;;;;;;3.80;100.00;94898.03;5033087;28;20514;-71
2022/05/30 05:05:38;;;;;;;9.20;6.20;;;;;;;3.86;100.00;94893.69;5027569;28;20041;-72
2022/05/30 05:08:36;;;;;;;10.25;5.90;;;;;;;3.91;100.00;94898.19;5026067;28;20045;-72
2022/05/30 05:11:17;;;;;;;8.68;5.80;;;;;;;4.05;100.00;94903.78;5027363;28;20400;-71
2022/05/30 05:13:43;;;;;;;10.93;6.28;;;;;;;4.19;100.00;94897.19;5028140;28;20069;-71
2022/05/30 05:16:09;;;;;;;9.55;6.00;;;;;;;4.20;100.00;94906.59;5027891;28;20098;-73
2022/05/30 05:18:34;;;;;;;10.82;5.75;;;;;;;4.26;100.00;94900.38;5024936;28;20037;-73
2022/05/30 05:21:00;;;;;;;10.02;5.95;;;;;;;4.39;100.00;94893.25;5028621;28;20099;-71
2022/05/30 05:23:26;;;;;;;11.15;5.57;;;;;;;4.50;100.00;94905.34;5027917;28;20557;-75
2022/05/30 05:25:52;;;;;;;10.85;5.88;;;;;;;4.50;100.00;94905.34;5022586;28;20041;-75
2022/05/30 05:28:17;;;;;;;9.13;5.93;;;;;;;4.73;100.00;94903.47;5027597;28;20048;-74
2022/05/30 05:30:43;;;;;;;13.23;6.90;;;;;;;4.82;100.00;94907.97;5021246;28;20199;-74
2022/05/30 05:33:10;;;;;;;9.98;6.90;;;;;;;4.92;100.00;94912.50;5026352;28;20044;-75
2022/05/30 05:35:43;;;;;;;12.82;6.70;;;;;;;4.95;100.00;94909.38;5022474;28;20041;-77
2022/05/30 05:38:09;;;;;;;12.07;6.22;;;;;;;5.17;100.00;94908.50;5027441;28;20045;-75
2022/05/30 05:40:42;;;;;;;10.93;7.13;;;;;;;5.15;100.00;94908.75;5025292;28;20040;-76
2022/05/30 05:43:09;;;;;;;10.48;6.10;;;;;;;5.22;100.00;94910.41;5027941;28;20534;-75
2022/05/30 05:45:36;;;;;;;12.65;6.95;;;;;;;5.30;100.00;94902.09;5029520;28;20103;-77
2022/05/30 05:48:01;;;;;;;10.60;6.70;;;;;;;5.37;100.00;94900.84;5031952;28;20415;-76
2022/05/30 05:50:27;;;;;;;11.57;6.60;;;;;;;5.58;100.00;94902.81;5021097;28;20042;-74
2022/05/30 05:52:53;;;;;;;9.25;6.38;;;;;;;5.59;100.00;94893.91;5028441;28;20049;-75
2022/05/30 05:55:20;;;;;;;10.98;6.90;;;;;;;5.58;100.00;94887.91;5027729;28;20095;-75
2022/05/30 05:57:45;;;;;;;9.48;6.43;;;;;;;5.86;100.00;94888.56;5025415;28;20523;-75
2022/05/30 06:00:11;;;;;;;12.98;6.68;;;;;;;5.94;100.00;94877.66;5028037;28;20042;-75
2022/05/30 06:02:41;;;;;;;10.02;6.50;;;;;;;6.00;100.00;94884.47;5015321;28;20042;-74
2022/05/30 06:05:09;;;;;;;10.43;6.80;;;;;;;5.96;100.00;94883.41;5028929;28;20572;-75
2022/05/30 06:07:36;;;;;;;10.02;6.22;;;;;;;6.04;100.00;94890.78;5028987;28;20037;-77
2022/05/30 06:10:02;;;;;;;9.98;6.80;;;;;;;6.09;100.00;94886.63;5023598;28;20091;-75
2022/05/30 06:12:27;;;;;;;15.52;7.35;;;;;;;6.31;100.00;94874.16;5026469;28;20042;-76
2022/05/30 06:14:53;;;;;;;13.40;7.55;;;;;;;6.39;100.00;94886.72;5028689;28;20545;-76
2022/05/30 06:17:18;;;;;;;15.15;8.02;;;;;;;6.46;100.00;94885.69;5029852;28;20042;-77
2022/05/30 06:19:46;;;;;;;12.80;7.47;;;;;;;6.47;100.00;94888.03;5031693;28;20044;-77
2022/05/30 06:22:12;;;;;;;14.55;7.25;;;;;;;6.56;100.00;94880.47;5032553;28;20045;-76
2022/05/30 06:24:37;;;;;;;14.38;7.30;;;;;;;6.61;100.00;94882.31;5031356;28;20037;-77
2022/05/30 06:27:06;;;;;;;12.40;7.63;;;;;;;6.66;100.00;94888.34;5032214;28;20053;-78
2022/05/30 06:29:32;;;;;;;12.98;7.82;;;;;;;6.91;100.00;94894.63;5031651;28;20049;-76
2022/05/30 06:31:58;;;;;;;12.15;7.60;;;;;;;7.02;100.00;94898.03;5027038;28;20064;-76
2022/05/30 06:34:23;;;;;;;15.15;7.40;;;;;;;6.90;100.00;94895.69;5031559;28;20100;-76
2022/05/30 06:36:49;;;;;;;13.38;8.00;;;;;;;6.91;100.00;94892.00;5027933;28;20056;-75
2022/05/30 06:39:17;;;;;;;12.73;7.53;;;;;;;6.99;100.00;94896.72;5032415;28;20046;-75
2022/05/30 06:41:42;;;;;;;13.15;7.93;;;;;;;7.24;100.00;94889.91;5032236;28;20041;-77
2022/05/30 06:44:09;;;;;;;12.63;7.72;;;;;;;7.21;100.00;94893.88;5032415;28;20065;-77
2022/05/30 06:46:36;;;;;;;12.95;7.65;;;;;;;7.19;100.00;94892.56;5027355;28;20045;-77
2022/05/30 06:49:03;;;;;;;16.90;8.23;;;;;;;7.30;100.00;94878.41;5030449;28;20045;-77
2022/05/30 06:51:31;;;;;;;13.07;7.95;;;;;;;7.33;100.00;94877.88;5030854;28;20100;-77
2022/05/30 06:53:56;;;;;;;15.35;8.15;;;;;;;7.53;100.00;94891.97;5023990;28;20049;-77
2022/05/30 06:56:26;;;;;;;12.52;7.90;;;;;;;7.52;100.00;94898.28;5025068;28;20038;-77
2022/05/30 06:58:53;;;;;;;14.50;7.85;;;;;;;7.50;100.00;94895.13;5030013;28;20113;-77
2022/05/30 07:01:21;;;;;;;14.32;8.43;;;;;;;7.63;100.00;94897.22;5029282;28;20065;-77
2022/05/30 07:03:47;;;;;;;16.08;7.88;;;;;;;7.75;100.00;94892.47;5030529;28;20053;-76
2022/05/30 07:06:15;;;;;;;12.60;7.93;;;;;;;7.99;100.00;94894.50;5031708;28;20040;-76
2022/05/30 07:08:46;;;;;;;16.23;7.60;;;;;;;7.94;100.00;94892.69;5031567;28;20045;-76
2022/05/30 07:11:16;;;;;;;12.98;7.10;;;;;;;7.95;100.00;94898.69;5029835;28;20115;-76
2022/05/30 07:13:43;;;;;;;11.07;7.10;;;;;;;8.07;100.00;94896.53;5030890;28;20042;-77
2022/05/30 07:16:09;;;;;;;12.30;6.18;;;;;;;8.07;100.00;94896.53;5030479;28;20065;-76
2022/05/30 07:18:36;;;;;;;10.00;5.80;;;;;;;8.30;100.00;94904.84;5022599;28;20103;-76
2022/05/30 07:21:05;;;;;;;12.43;7.13;;;;;;;8.34;100.00;94900.63;5027115;28;20037;-76
2022/05/30 07:23:33;;;;;;;13.60;8.48;;;;;;;8.31;100.00;94906.44;5022347;28;20569;-75
2022/05/30 07:26:00;;;;;;;12.55;7.15;;;;;;;8.36;100.00;94909.03;5018872;28;20049;-75
2022/05/30 07:28:30;;;;;;;14.02;7.78;;;;;;;8.63;100.00;94915.72;5029768;28;20414;-75
2022/05/30 07:31:04;;;;;;;11.38;6.97;;;;;;;8.63;100.00;94918.34;5029521;28;20080;-75
2022/05/30 07:33:31;;;;;;;12.27;7.53;;;;;;;8.69;100.00;94917.25;5031075;28;20072;-75
2022/05/30 07:35:57;;;;;;;12.48;7.78;;;;;;;8.91;100.00;94908.22;5031225;28;20049;-76
2022/05/30 07:38:22;;;;;;;10.60;6.50;;;;;;;9.11;100.00;94912.56;5030328;28;20041;-76
2022/05/30 07:40:48;;;;;;;9.23;5.43;;;;;;;9.16;100.00;94915.91;5024346;28;20677;-76
2022/05/30 07:43:14;;;;;;;11.93;5.53;;;;;;;9.33;100.00;94914.72;5029546;28;20042;-80
2022/05/30 07:45:40;;;;;;;11.75;6.40;;;;;;;9.22;100.00;94913.25;5030416;28;20041;-75
2022/05/30 07:48:07;;;;;;;11.40;6.10;;;;;;;9.10;100.00;94919.63;5028339;28;20565;-76
2022/05/30 07:50:36;;;;;;;12.05;6.50;;;;;;;9.05;100.00;94919.69;5023336;28;20053;-77
2022/05/30 07:53:03;;;;;;;9.85;5.97;;;;;;;9.40;100.00;94925.69;5026697;28;20045;-77
2022/05/30 07:55:29;;;;;;;10.02;6.18;;;;;;;9.35;100.00;94923.09;5029495;28;20052;-74
2022/05/30 07:57:59;;;;;;;10.57;5.78;;;;;;;9.34;100.00;94918.94;5023522;28;20499;-77
2022/05/30 08:00:29;;;;;;;8.88;5.25;;;;;;;9.35;100.00;94917.84;5025436;28;20041;-74
2022/05/30 08:02:55;;;;;;;8.88;5.25;;;;;;;9.71;100.00;94930.66;5030620;28;20038;-74
2022/05/30 08:05:21;;;;;;;9.25;5.25;;;;;;;9.60;100.00;94931.84;5029162;28;20087;-74
2022/05/30 08:07:47;;;;;;;8.20;5.03;;;;;;;9.67;100.00;94925.19;5029967;28;20510;-73
2022/05/30 08:10:15;;;;;;;8.95;5.18;;;;;;;9.92;98.39;94925.22;5028055;28;20049;-73
2022/05/30 08:12:40;;;;;;;7.00;5.00;;;;;;;9.63;100.00;94923.41;5030025;28;20108;-74
2022/05/30 08:15:08;;;;;;;7.65;5.10;;;;;;;9.62;100.00;94927.09;5028955;28;20459;-75
2022/05/30 08:17:33;;;;;;;7.80;5.05;;;;;;;9.64;100.00;94930.22;5028237;28;20042;-76
2022/05/30 08:20:01;;;;;;;8.23;5.03;;;;;;;9.79;100.00;94926.66;5028577;28;20038;-75
2022/05/30 08:22:27;;;;;;;8.02;4.60;;;;;;;9.76;100.00;94933.25;5029372;28;20120;-76
2022/05/30 08:24:53;;;;;;;5.78;3.85;;;;;;;9.75;100.00;94933.53;5029514;28;20045;-74
2022/05/30 08:27:20;;;;;;;7.30;4.80;;;;;;;9.76;100.00;94933.25;5028465;28;20041;-73
2022/05/30 08:29:46;;;;;;;11.75;4.97;;;;;;;9.77;100.00;94934.84;5028707;28;20041;-74
2022/05/30 08:32:12;;;;;;;8.77;4.10;;;;;;;9.70;100.00;94934.38;5026500;28;20049;-74
2022/05/30 08:34:39;;;;;;;9.45;4.30;;;;;;;9.62;100.00;94929.72;5029024;28;20048;-74
2022/05/30 08:37:06;;;;;;;7.65;4.15;;;;;;;9.58;100.00;94926.06;5028929;28;20042;-74
2022/05/30 08:42:28;;;;;;;7.15;4.18;;;;;;;9.82;100.00;94931.38;5022330;28;20069;-74
2022/05/30 08:44:56;;;;;;;7.97;4.47;;;;;;;10.05;100.00;94935.06;5028860;28;20048;-74
2022/05/30 08:47:31;;;;;;;10.32;4.53;;;;;;;10.23;100.00;94936.19;5028161;28;20053;-73
2022/05/30 08:50:21;;;;;;;10.80;4.35;;;;;;;10.36;96.21;94934.75;5029148;28;20084;-74
2022/05/30 08:53:11;;;;;;;9.02;4.22;;;;;;;10.13;97.11;94939.72;5027279;28;20255;-74
2022/05/30 08:56:02;;;;;;;11.80;3.88;;;;;;;10.15;99.67;94939.44;5024916;28;20037;-74
2022/05/30 08:58:49;;;;;;;7.15;4.07;;;;;;;10.14;100.00;94949.19;5027085;28;20038;-74
2022/05/30 09:01:21;;;;;;;8.02;4.65;;;;;;;10.12;100.00;94946.03;5020533;28;20041;-74
2022/05/30 09:04:16;;;;;;;6.65;3.97;;;;;;;10.30;100.00;94941.09;5023124;28;20056;-74
2022/05/30 09:06:53;;;;;;;5.85;3.60;;;;;;;10.78;97.63;94940.28;5026303;28;20510;-74
2022/05/30 09:09:45;;;;;;;6.85;3.63;;;;;;;11.21;89.70;94943.59;5021420;28;20076;-74
2022/05/30 09:12:15;;;;;;;5.47;3.45;;;;;;;11.50;89.83;94939.22;5028228;28;20040;-74
2022/05/30 09:14:48;;;;;;;7.57;3.65;;;;;;;11.52;83.01;94937.88;5028160;28;20034;-73
2022/05/30 09:17:35;;;;;;;10.88;4.20;;;;;;;11.61;82.98;94938.75;5025727;28;20049;-74
2022/05/30 09:20:05;;;;;;;4.55;3.22;;;;;;;11.80;90.48;94937.91;5022835;28;20037;-73
2022/05/30 09:22:31;;;;;;;7.80;3.70;;;;;;;11.33;75.10;94939.75;5023081;28;20041;-74
2022/05/30 09:27:42;;;;;;;6.93;3.72;;;;;;;11.44;84.97;94933.25;5027041;28;20041;-74
2022/05/30 09:30:09;;;;;;;6.93;3.95;;;;;;;11.40;84.95;94933.03;5028354;28;20047;-74
2022/05/30 09:33:00;;;;;;;10.00;4.28;;;;;;;11.47;80.55;94931.91;5022776;28;20037;-74
2022/05/30 09:35:32;;;;;;;7.13;3.80;;;;;;;11.64;83.63;94928.69;5032724;28;20107;-75
2022/05/30 09:38:10;;;;;;;6.75;3.70;;;;;;;12.16;89.35;94939.94;5024673;28;20042;-74
2022/05/30 09:40:43;;;;;;;11.02;4.18;;;;;;;12.39;80.47;94932.13;5018777;28;20033;-74
2022/05/30 09:43:13;;;;;;;7.30;3.88;;;;;;;12.88;72.64;94933.19;5027510;28;20041;-74
2022/05/30 09:45:39;;;;;;;9.15;3.17;;;;;;;12.75;74.12;94934.03;5028363;28;20107;-74
2022/05/30 09:48:14;;;;;;;7.68;3.60;;;;;;;12.86;70.13;94939.84;5027964;28;20490;-74
2022/05/30 09:50:46;;;;;;;7.55;3.65;;;;;;;12.77;69.91;94932.66;5027782;28;20041;-74
2022/05/30 09:53:11;;;;;;;5.22;3.10;;;;;;;13.00;68.32;94922.09;5033086;28;20400;-74
2022/05/30 09:55:40;;;;;;;8.55;3.55;;;;;;;12.68;79.96;94926.50;5031864;28;20048;-74
2022/05/30 09:58:06;;;;;;;5.38;3.60;;;;;;;12.47;73.96;94923.50;5031585;28;20048;-74
2022/05/30 10:00:35;;;;;;;5.72;4.07;;;;;;;12.45;72.92;94936.22;5026751;28;20033;-74
2022/05/30 10:03:10;;;;;;;6.63;4.25;;;;;;;12.09;73.45;94929.00;5032146;28;20048;-74
2022/05/30 10:05:38;;;;;;;7.97;4.43;;;;;;;12.46;81.07;94935.13;5030147;28;20038;-74
2022/05/30 10:08:24;;;;;;;8.25;4.90;;;;;;;12.94;74.28;94936.50;5028970;28;20128;-74
2022/05/30 10:10:52;;;;;;;7.00;4.50;;;;;;;12.88;73.91;94932.44;5024520;28;20060;-74
2022/05/30 10:13:34;;;;;;;6.53;4.10;;;;;;;13.15;72.07;94932.31;5031261;28;20045;-74
2022/05/30 10:16:02;;;;;;;8.65;4.60;;;;;;;13.72;74.11;94933.66;5025815;28;20045;-76
2022/05/30 10:18:38;;;;;;;7.55;4.20;;;;;;;13.92;68.08;94936.88;5029555;28;20503;-76
2022/05/30 10:21:29;;;;;;;8.48;4.68;;;;;;;13.95;70.42;94931.75;5031170;28;20124;-74
2022/05/30 10:30:14;;;;;;;9.48;5.22;;;;;;;13.86;70.15;94928.28;5025845;28;20108;-72
2022/05/30 10:32:59;;;;;;;8.32;4.68;;;;;;;14.06;71.46;94926.19;5029893;28;20039;-76
2022/05/30 10:35:41;;;;;;;8.48;5.47;;;;;;;14.48;69.28;94916.03;5033014;28;20057;-75
2022/05/30 10:38:06;;;;;;;7.72;5.22;;;;;;;14.91;65.94;94928.59;5030371;28;20037;-73
2022/05/30 10:40:54;;;;;;;8.13;5.05;;;;;;;14.10;66.37;94932.44;5029329;28;20405;-74
2022/05/30 10:43:31;;;;;;;10.43;4.70;;;;;;;14.58;69.48;94930.84;5025916;28;20041;-73
2022/05/30 10:46:10;;;;;;;7.68;4.68;;;;;;;14.03;68.13;94927.59;5025537;28;20037;-74
2022/05/30 10:48:46;;;;;;;8.00;4.70;;;;;;;13.66;70.32;94930.38;5031755;28;20049;-71
2022/05/30 10:51:18;;;;;;;7.78;4.82;;;;;;;14.66;67.96;94928.25;5032442;28;20039;-73
2022/05/30 10:54:00;;;;;;;8.05;4.50;;;;;;;15.63;67.85;94921.06;5028439;28;20100;-73
2022/05/30 10:56:32;;;;;;;7.72;4.30;;;;;;;15.67;63.96;94916.69;5027200;28;21688;-72
2022/05/30 10:59:55;;;;;;;6.97;3.70;;;;;;;16.95;59.62;94918.63;5029558;28;20119;-74
2022/05/30 11:02:33;;;;;;;6.90;3.40;;;;;;;17.94;56.97;94919.00;4967758;28;20047;-72
2022/05/30 11:05:01;;;;;;;6.65;3.53;;;;;;;18.32;53.39;94917.94;4952961;28;20051;-73
2022/05/30 11:07:37;;;;;;;5.18;3.47;;;;;;;18.50;52.75;94919.25;5012485;28;20550;-73
2022/05/30 11:10:28;;;;;;;7.38;3.78;;;;;;;17.02;52.33;94913.56;5034331;28;20103;-73
2022/05/30 11:13:03;;;;;;;7.97;3.50;;;;;;;17.53;53.18;94920.63;5027936;28;20041;-74
2022/05/30 11:15:36;;;;;;;13.02;4.07;;;;;;;16.43;58.31;94931.13;5031156;28;20503;-73
2022/05/30 11:18:10;;;;;;;9.23;4.68;;;;;;;16.82;58.64;94924.94;5027542;28;20049;-73
2022/05/30 11:21:13;;;;;;;10.57;4.60;;;;;;;17.38;58.58;94928.13;5028947;28;20045;-74
2022/05/30 11:23:39;;;;;;;8.90;4.75;;;;;;;18.41;57.78;94926.56;5001153;28;20057;-75
2022/05/30 11:26:36;;;;;;;8.20;5.10;;;;;;;16.85;58.39;94926.94;5030994;28;20164;-74
2022/05/30 11:29:43;;;;;;;9.85;5.10;;;;;;;16.09;57.91;94938.13;5026464;28;20126;-75
2022/05/30 11:32:24;;;;;;;7.22;4.68;;;;;;;15.27;59.00;94940.78;5028058;28;20095;-75
2022/05/30 11:34:57;;;;;;;6.25;4.10;;;;;;;15.66;60.31;94946.16;5029936;28;20069;-75
2022/05/30 11:37:29;;;;;;;5.35;3.90;;;;;;;15.82;59.68;94944.63;5031178;28;20495;-79
2022/05/30 11:40:27;;;;;;;6.88;3.60;;;;;;;15.54;62.68;94944.16;5028180;28;20048;-75
2022/05/30 11:43:11;;;;;;;6.55;4.15;;;;;;;15.70;56.74;94944.44;5028105;28;20049;-75
2022/05/30 11:45:53;;;;;;;6.70;4.13;;;;;;;15.24;55.54;94936.09;5025244;28;20038;-75
2022/05/30 11:48:26;;;;;;;8.90;4.00;;;;;;;16.01;55.61;94936.28;5024935;28;20489;-76
2022/05/30 11:51:00;;;;;;;10.20;4.53;;;;;;;16.64;55.37;94925.06;5031151;28;20045;-75
2022/05/30 11:53:46;;;;;;;;;;;;;;;16.80;56.00;94934.00;5029634;28;20042;-75
2022/05/30 11:56:24;;;;;;;7.72;4.50;;;;;;;18.08;54.15;94935.44;5011431;28;20414;-75
2022/05/30 11:59:10;;;;;;;8.40;4.72;;;;;;;17.63;50.37;94946.84;5024755;28;20045;-76
2022/05/30 12:01:38;;;;;;;7.85;4.60;;;;;;;18.46;52.33;94945.00;5023182;28;20478;-75
2022/05/30 12:04:47;;;;;;;7.80;4.43;;;;;;;17.69;53.30;94950.84;5030565;28;20045;-75
2022/05/30 12:07:25;;;;;;;6.57;4.03;;;;;;;18.82;50.19;94938.09;5020996;28;20057;-75
2022/05/30 12:10:23;;;;;;;6.38;4.00;;;;;;;18.22;47.69;94935.13;5030103;28;20041;-75